Time;durP1;ratioP1;P1;durP2;ratioP2;P2;SDS_P1;SDS_P2;PMS_P1;PMS_P2;Temp;Humidity;BMP_temperature;BMP_pressure;BME280_temperature;BME280_humidity;BME280_pressure;Samples;Min_cycle;Max_cycle;Signal;HPM_P1;HPM_P2
2022/05/18 00:01:11;;;;;;;9.03;5.43;;;19.10;76.30;;;;;;5012532;28;20470;-71
2022/05/18 00:03:42;;;;;;;12.30;5.37;;;19.10;76.30;;;;;;5019113;28;20958;-70
2022/05/18 00:06:11;;;;;;;10.60;5.33;;;19.10;76.30;;;;;;5023711;28;20496;-70
2022/05/18 00:08:40;;;;;;;10.90;5.70;;;19.00;76.50;;;;;;5018303;28;20468;-70
2022/05/18 00:11:12;;;;;;;10.80;6.30;;;19.00;76.60;;;;;;5018293;28;20461;-70
2022/05/18 00:13:42;;;;;;;9.53;5.90;;;18.90;76.70;;;;;;5017301;28;20462;-70
2022/05/18 00:16:10;;;;;;;8.17;4.67;;;19.00;76.80;;;;;;5016314;28;20476;-70
2022/05/18 00:18:38;;;;;;;9.90;5.70;;;19.00;76.90;;;;;;5015832;28;20457;-69
2022/05/18 00:21:08;;;;;;;9.20;5.50;;;19.00;77.00;;;;;;5021248;28;20457;-70
2022/05/18 00:23:36;;;;;;;8.77;5.53;;;19.00;77.00;;;;;;5019093;28;20758;-70
2022/05/18 00:26:06;;;;;;;10.20;5.70;;;19.00;77.00;;;;;;5022775;28;20477;-70
2022/05/18 00:28:35;;;;;;;8.60;5.60;;;19.00;77.00;;;;;;5019694;28;20476;-70
2022/05/18 00:31:04;;;;;;;9.43;5.90;;;19.00;77.10;;;;;;5017332;28;21022;-70
2022/05/18 00:33:32;;;;;;;7.87;4.80;;;19.00;77.00;;;;;;5020522;28;20465;-71
2022/05/18 00:36:00;;;;;;;8.90;5.67;;;19.00;77.00;;;;;;5018649;28;20490;-71
2022/05/18 00:38:28;;;;;;;7.77;5.13;;;19.00;77.10;;;;;;5019109;28;20456;-70
2022/05/18 00:40:57;;;;;;;8.90;5.20;;;19.00;77.10;;;;;;5018762;28;20452;-70
2022/05/18 00:43:41;;;;;;;10.07;5.70;;;19.00;77.10;;;;;;5016767;28;20537;-70
2022/05/18 00:46:12;;;;;;;8.80;5.13;;;19.00;77.10;;;;;;5011182;28;20473;-70
2022/05/18 00:48:41;;;;;;;9.23;5.63;;;19.00;77.10;;;;;;5017004;28;20452;-70
2022/05/18 00:51:15;;;;;;;11.23;5.40;;;19.00;77.10;;;;;;5022816;28;20483;-71
2022/05/18 00:53:46;;;;;;;9.17;5.73;;;19.00;77.20;;;;;;5019857;28;20458;-71
2022/05/18 00:56:18;;;;;;;8.67;5.90;;;19.00;77.10;;;;;;5017888;28;20854;-70
2022/05/18 00:58:53;;;;;;;10.13;6.03;;;18.90;77.00;;;;;;5019502;28;21366;-70
2022/05/18 01:01:21;;;;;;;11.60;6.10;;;18.90;77.00;;;;;;5016170;28;20637;-71
2022/05/18 01:03:52;;;;;;;9.33;5.90;;;18.80;77.00;;;;;;5020722;28;20473;-70
2022/05/18 01:06:26;;;;;;;7.97;5.40;;;18.80;77.00;;;;;;5022895;28;20469;-70
2022/05/18 01:08:59;;;;;;;11.70;5.37;;;18.70;77.10;;;;;;5021908;28;20452;-69
2022/05/18 01:11:27;;;;;;;11.17;6.87;;;18.70;77.10;;;;;;5017855;28;20536;-71
2022/05/18 01:13:57;;;;;;;10.63;5.30;;;18.60;77.20;;;;;;5021231;28;20459;-70
2022/05/18 01:16:27;;;;;;;7.87;5.00;;;18.60;77.30;;;;;;5017317;28;20502;-71
2022/05/18 01:18:56;;;;;;;12.00;6.00;;;18.60;77.30;;;;;;5018872;28;20961;-70
2022/05/18 01:21:29;;;;;;;8.67;5.40;;;18.60;77.30;;;;;;5018265;28;20547;-70
2022/05/18 01:24:04;;;;;;;10.67;5.63;;;18.60;77.30;;;;;;5018317;28;20857;-69
2022/05/18 01:26:40;;;;;;;11.23;5.50;;;18.60;77.30;;;;;;5018344;28;20467;-71
2022/05/18 01:29:09;;;;;;;9.40;5.03;;;18.60;77.40;;;;;;5032285;28;21017;-71
2022/05/18 01:31:49;;;;;;;8.87;5.30;;;18.60;77.40;;;;;;5016711;28;20469;-70
2022/05/18 01:34:19;;;;;;;8.63;4.73;;;18.60;77.40;;;;;;5019828;28;20456;-69
2022/05/18 01:36:48;;;;;;;11.70;6.37;;;18.60;77.30;;;;;;5020999;28;20585;-69
2022/05/18 01:39:21;;;;;;;8.57;4.60;;;18.60;77.20;;;;;;5019873;28;20449;-70
2022/05/18 01:41:56;;;;;;;8.23;5.20;;;18.50;77.30;;;;;;5014411;28;20456;-70
2022/05/18 01:44:25;;;;;;;9.57;5.80;;;18.50;77.30;;;;;;5011185;28;20518;-70
2022/05/18 01:46:53;;;;;;;9.83;4.83;;;18.50;77.30;;;;;;5014361;28;20491;-70
2022/05/18 01:49:21;;;;;;;8.57;5.20;;;18.50;77.40;;;;;;5021798;28;20471;-70
2022/05/18 01:51:53;;;;;;;8.90;5.77;;;18.50;77.40;;;;;;5019606;28;20462;-70
2022/05/18 01:54:21;;;;;;;9.30;5.50;;;18.50;77.30;;;;;;5016259;28;20983;-70
2022/05/18 01:56:49;;;;;;;10.10;4.70;;;18.50;77.40;;;;;;5021956;28;20483;-70
2022/05/18 01:59:19;;;;;;;11.00;4.70;;;18.50;77.50;;;;;;5020536;28;20450;-69
2022/05/18 02:01:48;;;;;;;8.60;4.90;;;18.50;77.60;;;;;;5016957;28;20464;-70
2022/05/18 02:04:17;;;;;;;9.67;6.30;;;18.50;77.60;;;;;;5018950;28;20883;-69
2022/05/18 02:06:44;;;;;;;10.33;5.87;;;18.50;77.40;;;;;;5021033;28;20455;-70
2022/05/18 02:09:16;;;;;;;10.37;5.97;;;18.40;77.50;;;;;;5014184;28;20476;-71
2022/05/18 02:11:44;;;;;;;8.60;5.40;;;18.40;77.60;;;;;;5015758;28;20852;-68
2022/05/18 02:14:13;;;;;;;9.00;5.57;;;18.40;77.60;;;;;;5018636;28;20457;-69
2022/05/18 02:16:42;;;;;;;9.67;5.77;;;18.40;77.70;;;;;;5017960;28;20523;-69
2022/05/18 02:19:10;;;;;;;14.30;5.60;;;18.40;77.70;;;;;;5019842;28;20460;-71
2022/05/18 02:21:38;;;;;;;11.27;5.30;;;18.40;77.80;;;;;;5018956;28;20459;-71
2022/05/18 02:24:07;;;;;;;9.07;4.90;;;18.40;77.70;;;;;;5016554;28;20468;-70
2022/05/18 02:26:35;;;;;;;18.80;5.97;;;18.40;77.70;;;;;;5016881;28;21413;-69
2022/05/18 02:29:03;;;;;;;7.97;4.90;;;18.40;77.70;;;;;;5012900;28;20478;-70
2022/05/18 02:31:31;;;;;;;11.40;5.73;;;18.40;77.60;;;;;;5013774;28;20492;-70
2022/05/18 02:34:01;;;;;;;7.57;5.10;;;18.40;77.60;;;;;;5020280;28;20463;-70
2022/05/18 02:36:29;;;;;;;8.50;5.40;;;18.30;77.70;;;;;;5019126;28;20501;-71
2022/05/18 02:38:57;;;;;;;8.13;5.40;;;18.30;77.70;;;;;;5034626;28;20844;-71
2022/05/18 02:41:25;;;;;;;12.90;6.10;;;18.30;77.50;;;;;;5015094;28;20490;-70
2022/05/18 02:43:54;;;;;;;9.63;5.33;;;18.20;77.50;;;;;;5029021;28;20452;-71
2022/05/18 02:46:23;;;;;;;9.53;5.40;;;18.10;77.60;;;;;;5013632;28;20474;-70
2022/05/18 02:48:52;;;;;;;7.60;4.67;;;18.10;77.60;;;;;;5016118;28;20461;-71
2022/05/18 02:51:22;;;;;;;8.53;5.07;;;18.10;77.60;;;;;;5021513;28;20481;-70
2022/05/18 02:53:50;;;;;;;9.93;6.40;;;18.00;77.60;;;;;;5019008;28;20455;-71
2022/05/18 02:56:23;;;;;;;13.03;5.40;;;18.00;77.60;;;;;;5015164;28;20492;-70
2022/05/18 02:58:52;;;;;;;8.00;5.07;;;18.00;77.70;;;;;;5013011;28;20798;-71
2022/05/18 03:01:23;;;;;;;9.23;5.70;;;18.00;77.80;;;;;;5014913;28;20494;-69
2022/05/18 03:03:51;;;;;;;10.00;5.27;;;18.00;77.90;;;;;;5017740;28;20467;-70
2022/05/18 03:06:22;;;;;;;11.07;5.60;;;18.00;77.60;;;;;;5017859;28;20487;-70
2022/05/18 03:08:51;;;;;;;9.73;5.13;;;17.90;77.50;;;;;;5014702;28;20468;-70
2022/05/18 03:11:19;;;;;;;10.50;5.30;;;17.90;77.70;;;;;;5017673;28;20455;-71
2022/05/18 03:13:47;;;;;;;9.40;5.30;;;17.90;77.80;;;;;;5018450;28;20472;-70
2022/05/18 03:16:16;;;;;;;9.60;5.47;;;17.80;77.70;;;;;;5021329;28;20487;-70
2022/05/18 03:18:44;;;;;;;11.23;5.83;;;17.80;77.70;;;;;;5022419;28;20946;-71
2022/05/18 03:23:58;;;;;;;8.70;4.90;;;17.70;77.70;;;;;;5019848;28;20474;-72
2022/05/18 03:26:27;;;;;;;13.90;6.30;;;17.60;77.80;;;;;;5024944;28;20464;-71
2022/05/18 03:28:56;;;;;;;8.53;5.20;;;17.60;78.00;;;;;;5022087;28;20468;-71
2022/05/18 03:31:25;;;;;;;10.33;5.37;;;17.60;78.00;;;;;;5022668;28;20492;-71
2022/05/18 03:33:55;;;;;;;9.70;5.23;;;17.60;78.00;;;;;;5022449;28;21315;-70
2022/05/18 03:36:24;;;;;;;7.53;4.60;;;17.60;77.90;;;;;;5014766;28;20476;-71
2022/05/18 03:38:53;;;;;;;10.43;4.87;;;17.50;78.00;;;;;;5019030;28;20463;-70
2022/05/18 03:41:22;;;;;;;7.70;4.70;;;17.50;78.00;;;;;;5021568;28;20471;-71
2022/05/18 03:43:50;;;;;;;9.90;4.93;;;17.50;78.00;;;;;;5016759;28;20587;-70
2022/05/18 03:46:18;;;;;;;8.10;5.03;;;17.50;77.90;;;;;;5019701;28;20487;-70
2022/05/18 03:48:47;;;;;;;7.60;4.47;;;17.60;77.80;;;;;;5022515;28;20822;-70
2022/05/18 03:51:17;;;;;;;6.80;4.37;;;17.50;77.70;;;;;;5023695;28;20594;-70
2022/05/18 03:53:45;;;;;;;10.83;4.83;;;17.50;77.60;;;;;;5023947;28;20464;-69
2022/05/18 03:56:13;;;;;;;11.00;4.53;;;17.40;77.60;;;;;;5023162;28;20468;-70
2022/05/18 03:58:42;;;;;;;7.33;4.23;;;17.50;77.60;;;;;;5019143;28;20473;-70
2022/05/18 04:01:11;;;;;;;7.97;4.70;;;17.40;77.50;;;;;;5017475;28;20475;-71
2022/05/18 04:03:41;;;;;;;8.53;4.77;;;17.40;77.40;;;;;;5018870;28;20472;-69
2022/05/18 04:06:10;;;;;;;8.67;4.63;;;17.30;77.40;;;;;;5019469;28;20477;-70
2022/05/18 04:08:38;;;;;;;8.23;5.23;;;17.30;77.40;;;;;;5017885;28;20445;-71
2022/05/18 04:11:14;;;;;;;10.00;4.73;;;17.30;77.50;;;;;;5016932;28;20472;-70
2022/05/18 04:13:45;;;;;;;11.43;5.13;;;17.40;77.60;;;;;;5020574;28;20880;-71
2022/05/18 04:16:13;;;;;;;9.43;5.30;;;17.40;77.40;;;;;;5019359;28;20498;-69
2022/05/18 04:18:41;;;;;;;8.23;5.10;;;17.30;77.40;;;;;;5014870;28;20468;-69
2022/05/18 04:21:09;;;;;;;9.10;5.30;;;17.30;77.40;;;;;;5020800;28;20478;-69
2022/05/18 04:23:39;;;;;;;10.03;5.67;;;17.40;77.50;;;;;;5022480;28;20834;-70
2022/05/18 04:26:07;;;;;;;8.43;4.87;;;17.40;77.60;;;;;;5022808;28;20479;-70
2022/05/18 04:28:35;;;;;;;9.33;5.13;;;17.40;77.60;;;;;;5024450;28;20468;-71
2022/05/18 04:31:05;;;;;;;9.03;5.03;;;17.40;77.60;;;;;;5020538;28;20468;-71
2022/05/18 04:33:33;;;;;;;9.87;5.33;;;17.50;77.80;;;;;;5018866;28;20475;-70
2022/05/18 04:36:07;;;;;;;7.80;5.37;;;17.50;77.90;;;;;;5022484;28;20486;-70
2022/05/18 04:38:35;;;;;;;7.67;4.97;;;17.60;77.80;;;;;;5020538;28;20488;-71
2022/05/18 04:41:03;;;;;;;8.70;4.73;;;17.60;77.80;;;;;;5021072;28;20470;-70
2022/05/18 04:43:32;;;;;;;11.53;5.20;;;17.60;77.80;;;;;;5018168;28;20468;-70
2022/05/18 04:46:01;;;;;;;8.60;5.87;;;17.60;77.80;;;;;;5020661;28;20480;-69
2022/05/18 04:48:31;;;;;;;8.80;5.30;;;17.60;77.90;;;;;;5034485;28;20828;-70
2022/05/18 04:51:04;;;;;;;9.67;5.50;;;17.60;78.00;;;;;;5018918;28;21041;-71
2022/05/18 04:53:32;;;;;;;10.07;5.67;;;17.70;78.20;;;;;;5032104;28;20468;-71
2022/05/18 04:56:00;;;;;;;9.17;5.83;;;17.70;78.30;;;;;;5016919;28;20497;-71
2022/05/18 04:58:28;;;;;;;10.57;5.80;;;17.80;78.50;;;;;;5017420;28;20472;-71
2022/05/18 05:00:59;;;;;;;7.93;4.63;;;17.90;78.50;;;;;;5015239;28;20895;-71
2022/05/18 05:03:27;;;;;;;8.30;5.13;;;18.00;78.60;;;;;;5017850;28;20468;-70
2022/05/18 05:06:02;;;;;;;9.77;5.00;;;18.10;78.80;;;;;;5016514;28;20526;-71
2022/05/18 05:08:30;;;;;;;10.33;5.50;;;18.20;78.80;;;;;;5017565;28;20452;-70
2022/05/18 05:10:59;;;;;;;9.60;6.23;;;18.40;78.90;;;;;;5013749;28;20543;-70
2022/05/18 05:13:27;;;;;;;8.20;5.60;;;18.50;79.00;;;;;;5017707;28;20815;-71
2022/05/18 05:16:00;;;;;;;10.13;5.50;;;18.60;79.10;;;;;;5018492;28;20482;-69
2022/05/18 05:18:29;;;;;;;10.30;5.90;;;18.80;79.40;;;;;;5019818;28;20473;-71
2022/05/18 05:20:57;;;;;;;8.80;5.57;;;19.00;79.40;;;;;;5018463;28;20448;-71
2022/05/18 05:23:27;;;;;;;15.07;6.40;;;19.30;79.70;;;;;;5017593;28;20459;-71
2022/05/18 05:25:57;;;;;;;11.53;5.77;;;19.50;78.80;;;;;;5017558;28;20488;-71
2022/05/18 05:28:25;;;;;;;7.93;5.00;;;19.60;78.10;;;;;;5020965;28;20475;-71
2022/05/18 05:30:53;;;;;;;8.40;5.47;;;19.60;77.80;;;;;;5016009;28;20475;-71
2022/05/18 05:33:22;;;;;;;11.23;6.33;;;19.50;77.80;;;;;;5014473;28;20516;-71
2022/05/18 05:35:57;;;;;;;9.60;5.90;;;19.50;78.10;;;;;;5015874;28;20480;-71
2022/05/18 05:38:27;;;;;;;12.17;6.83;;;19.60;78.30;;;;;;5015518;28;20470;-70
2022/05/18 05:40:55;;;;;;;10.70;5.77;;;19.80;78.50;;;;;;5017108;28;20467;-69
2022/05/18 05:43:23;;;;;;;8.60;5.30;;;20.30;79.50;;;;;;5015213;28;20455;-70
2022/05/18 05:45:56;;;;;;;8.50;5.50;;;20.80;78.30;;;;;;5023504;28;20610;-72
2022/05/18 05:48:25;;;;;;;9.77;5.60;;;21.10;78.20;;;;;;5019332;28;20527;-72
2022/05/18 05:50:53;;;;;;;13.83;6.77;;;22.10;78.80;;;;;;5018488;28;20461;-72
2022/05/18 05:53:21;;;;;;;8.10;5.87;;;22.90;77.20;;;;;;5019403;28;20465;-74
2022/05/18 05:55:51;;;;;;;9.97;7.40;;;23.60;74.80;;;;;;5018747;28;20503;-73
2022/05/18 05:58:19;;;;;;;12.53;6.87;;;23.50;73.50;;;;;;5020331;28;20477;-74
2022/05/18 06:00:47;;;;;;;7.90;5.63;;;23.30;73.10;;;;;;5018891;28;20473;-73
2022/05/18 06:03:16;;;;;;;10.70;5.03;;;23.20;73.80;;;;;;5017169;28;20454;-71
2022/05/18 06:05:44;;;;;;;8.83;5.60;;;23.90;75.00;;;;;;5014151;28;20489;-73
2022/05/18 06:08:12;;;;;;;11.47;6.50;;;24.90;74.20;;;;;;5017737;28;20469;-73
2022/05/18 06:10:40;;;;;;;16.20;6.27;;;26.20;72.20;;;;;;5016541;28;20466;-74
2022/05/18 06:13:12;;;;;;;11.10;5.70;;;27.20;69.10;;;;;;5021114;28;20453;-74
2022/05/18 06:15:41;;;;;;;13.10;6.60;;;27.60;66.80;;;;;;5013911;28;20506;-73
2022/05/18 06:18:10;;;;;;;8.73;6.20;;;27.20;64.90;;;;;;5012709;28;20484;-74
2022/05/18 06:20:46;;;;;;;8.53;5.80;;;26.20;64.40;;;;;;5017322;28;20463;-72
2022/05/18 06:23:15;;;;;;;12.10;6.07;;;25.10;65.40;;;;;;5016936;28;20455;-74
2022/05/18 06:25:43;;;;;;;9.60;5.50;;;24.10;66.00;;;;;;5017684;28;20475;-73
2022/05/18 06:28:12;;;;;;;9.50;5.40;;;23.30;67.10;;;;;;5022140;28;20455;-74
2022/05/18 06:30:41;;;;;;;15.20;6.53;;;22.70;68.20;;;;;;5016319;28;20475;-73
2022/05/18 06:33:10;;;;;;;12.80;6.20;;;22.30;68.90;;;;;;5016565;28;20475;-73
2022/05/18 06:35:38;;;;;;;9.60;6.00;;;21.90;69.60;;;;;;5016390;28;20481;-72
2022/05/18 06:38:11;;;;;;;14.23;6.50;;;21.60;70.20;;;;;;5017072;28;20972;-72
2022/05/18 06:43:26;;;;;;;10.07;5.80;;;21.30;71.20;;;;;;5016301;28;20440;-73
2022/05/18 06:45:54;;;;;;;13.57;6.07;;;21.20;71.50;;;;;;5013022;28;20481;-74
2022/05/18 06:48:22;;;;;;;12.43;6.83;;;21.10;71.90;;;;;;5021356;28;21075;-73
2022/05/18 06:51:10;;;;;;;16.40;6.40;;;21.00;72.10;;;;;;5018057;28;20467;-74
2022/05/18 06:53:39;;;;;;;15.53;6.10;;;21.00;72.50;;;;;;5018809;28;20444;-74
2022/05/18 06:56:07;;;;;;;10.67;5.50;;;20.90;72.60;;;;;;5021971;28;20536;-74
2022/05/18 06:58:36;;;;;;;7.17;4.80;;;20.90;73.10;;;;;;5024023;28;20546;-74
2022/05/18 07:01:07;;;;;;;8.67;5.50;;;20.90;73.10;;;;;;5022591;28;20479;-74
2022/05/18 07:03:35;;;;;;;9.47;5.40;;;20.90;73.30;;;;;;5021435;28;20997;-74
2022/05/18 07:06:04;;;;;;;10.60;6.00;;;20.90;73.60;;;;;;5025308;28;20492;-73
2022/05/18 07:08:32;;;;;;;8.40;5.07;;;20.90;73.50;;;;;;5023207;28;20452;-72
2022/05/18 07:11:00;;;;;;;8.87;5.00;;;21.00;73.60;;;;;;5022163;28;20469;-70
2022/05/18 07:13:29;;;;;;;8.13;4.60;;;21.00;73.80;;;;;;5021123;28;20457;-73
2022/05/18 07:15:58;;;;;;;8.37;4.83;;;21.10;73.50;;;;;;5022677;28;20863;-73
2022/05/18 07:18:29;;;;;;;10.03;5.47;;;21.10;73.40;;;;;;5020936;28;20456;-74
2022/05/18 07:20:57;;;;;;;10.40;5.47;;;21.20;73.40;;;;;;5020941;28;20468;-73
2022/05/18 07:23:26;;;;;;;9.00;5.50;;;21.20;73.40;;;;;;5018813;28;20492;-74
2022/05/18 07:25:56;;;;;;;8.83;4.80;;;21.20;73.30;;;;;;5017955;28;20482;-73
2022/05/18 07:28:25;;;;;;;7.67;4.90;;;21.30;73.30;;;;;;5020671;28;20470;-72
2022/05/18 07:30:54;;;;;;;9.33;4.43;;;21.30;73.10;;;;;;5021240;28;20528;-71
2022/05/18 07:33:25;;;;;;;20.93;5.47;;;21.40;73.00;;;;;;5019998;28;20469;-73
2022/05/18 07:35:54;;;;;;;9.37;5.40;;;21.40;72.90;;;;;;5025065;28;20486;-71
2022/05/18 07:38:26;;;;;;;7.83;5.17;;;21.40;73.00;;;;;;5024672;28;20483;-73
2022/05/18 07:41:11;;;;;;;13.80;5.67;;;21.50;72.90;;;;;;5020987;28;20450;-72
2022/05/18 07:43:40;;;;;;;10.20;5.40;;;21.60;72.70;;;;;;5016957;28;20461;-72
2022/05/18 07:46:10;;;;;;;7.50;4.47;;;21.60;72.50;;;;;;5023181;28;20500;-74
2022/05/18 07:48:40;;;;;;;7.57;5.03;;;21.60;72.50;;;;;;5025102;28;20440;-75
2022/05/18 07:51:09;;;;;;;8.10;4.40;;;21.70;72.40;;;;;;5019952;28;20801;-72
2022/05/18 07:53:37;;;;;;;7.60;4.80;;;21.70;72.30;;;;;;5016950;28;21283;-75
2022/05/18 07:56:12;;;;;;;8.27;5.07;;;21.80;72.20;;;;;;5016373;28;20492;-72
2022/05/18 07:58:40;;;;;;;11.43;6.00;;;21.80;72.20;;;;;;5012970;28;20441;-70
2022/05/18 08:01:08;;;;;;;16.03;5.73;;;21.80;72.10;;;;;;5011251;28;20601;-73
2022/05/18 08:03:37;;;;;;;9.70;4.87;;;21.90;71.80;;;;;;5018427;28;20508;-71
2022/05/18 08:06:06;;;;;;;9.17;5.43;;;21.90;71.70;;;;;;5020167;28;20489;-71
2022/05/18 08:08:34;;;;;;;10.00;5.63;;;22.00;71.60;;;;;;5019946;28;20472;-72
2022/05/18 08:16:34;;;;;;;7.93;4.40;;;22.10;71.60;;;;;;5022187;28;20500;-74
2022/05/18 08:19:06;;;;;;;13.13;7.30;;;22.10;71.50;;;;;;5024029;28;20480;-72
2022/05/18 08:21:35;;;;;;;12.13;5.47;;;22.20;71.50;;;;;;5022321;28;20471;-72
2022/05/18 08:24:04;;;;;;;13.73;7.67;;;22.20;71.20;;;;;;5019903;28;20459;-74
2022/05/18 08:26:32;;;;;;;7.37;5.13;;;22.20;71.10;;;;;;5019417;28;20819;-75
2022/05/18 08:29:01;;;;;;;11.20;5.53;;;22.30;71.00;;;;;;5013913;28;20474;-74
2022/05/18 08:31:29;;;;;;;8.30;5.57;;;22.30;71.00;;;;;;5018468;28;20477;-73
2022/05/18 08:33:57;;;;;;;13.27;5.70;;;22.30;70.90;;;;;;5015667;28;20477;-73
2022/05/18 08:36:26;;;;;;;8.90;4.90;;;22.40;71.00;;;;;;5015531;28;20479;-74
2022/05/18 08:38:56;;;;;;;7.53;5.10;;;22.40;70.80;;;;;;5019849;28;20899;-74
2022/05/18 08:41:27;;;;;;;9.77;4.80;;;22.50;70.60;;;;;;5018736;28;20468;-73
2022/05/18 08:43:58;;;;;;;10.13;5.07;;;22.50;70.40;;;;;;5018165;28;20445;-74
2022/05/18 08:46:39;;;;;;;8.60;4.87;;;22.50;70.30;;;;;;5016089;28;20497;-74
2022/05/18 08:49:13;;;;;;;9.03;4.73;;;22.50;70.30;;;;;;5017237;28;20491;-75
2022/05/18 08:51:51;;;;;;;10.33;4.30;;;22.50;70.10;;;;;;5021310;28;20453;-75
2022/05/18 08:54:32;;;;;;;8.00;4.90;;;22.60;70.10;;;;;;5018648;28;20469;-74
2022/05/18 08:57:04;;;;;;;7.80;4.30;;;22.70;69.90;;;;;;5015126;28;20452;-73
2022/05/18 08:59:36;;;;;;;7.10;4.00;;;22.80;69.80;;;;;;5013356;28;21196;-75
2022/05/18 09:02:10;;;;;;;8.53;5.37;;;22.80;69.70;;;;;;5015891;28;21027;-74
2022/05/18 09:04:47;;;;;;;7.07;4.00;;;22.90;69.40;;;;;;5020891;28;20466;-74
2022/05/18 09:07:40;;;;;;;16.03;4.30;;;22.90;69.10;;;;;;5016688;28;20463;-75
2022/05/18 09:10:22;;;;;;;6.73;3.47;;;23.00;68.90;;;;;;5018864;28;20449;-75
2022/05/18 09:12:51;;;;;;;7.70;4.37;;;23.00;68.90;;;;;;5017310;28;20474;-75
2022/05/18 09:15:24;;;;;;;7.00;3.40;;;23.10;68.80;;;;;;5017318;28;20484;-74
2022/05/18 09:17:57;;;;;;;7.90;4.57;;;23.10;68.50;;;;;;5015628;28;20498;-74
2022/05/18 09:20:34;;;;;;;7.07;3.63;;;23.20;68.40;;;;;;5017243;28;20473;-74
2022/05/18 09:23:38;;;;;;;7.57;3.67;;;23.20;68.30;;;;;;5017555;28;20458;-74
2022/05/18 09:26:22;;;;;;;6.33;3.27;;;23.20;67.90;;;;;;4975929;28;20499;-74
2022/05/18 09:28:53;;;;;;;6.23;3.50;;;23.20;67.80;;;;;;5018445;28;20472;-75
2022/05/18 09:31:53;;;;;;;12.20;4.93;;;23.30;67.70;;;;;;5019660;28;21225;-73
2022/05/18 09:34:33;;;;;;;6.97;3.57;;;23.30;67.60;;;;;;5020099;28;20464;-74
2022/05/18 09:37:16;;;;;;;7.00;3.90;;;23.40;67.50;;;;;;5031652;28;21241;-75
2022/05/18 09:39:48;;;;;;;5.67;3.37;;;23.40;67.40;;;;;;5019245;28;20472;-72
2022/05/18 09:42:20;;;;;;;6.40;3.30;;;23.50;67.10;;;;;;5017582;28;20461;-74
2022/05/18 09:44:56;;;;;;;6.90;3.30;;;23.50;66.80;;;;;;5016139;28;20493;-72
2022/05/18 09:47:28;;;;;;;6.23;3.73;;;23.50;66.60;;;;;;5014226;28;20463;-74
2022/05/18 09:50:00;;;;;;;7.07;3.40;;;23.50;66.60;;;;;;5015609;28;20460;-73
2022/05/18 09:52:29;;;;;;;6.10;3.33;;;23.50;66.50;;;;;;5018303;28;20468;-72
2022/05/18 09:55:00;;;;;;;7.90;3.87;;;23.60;66.30;;;;;;5016349;28;20472;-72
2022/05/18 09:57:36;;;;;;;7.93;3.30;;;23.60;66.30;;;;;;5012564;28;21002;-75
2022/05/18 10:00:08;;;;;;;10.13;3.80;;;23.60;66.30;;;;;;5014051;28;20471;-75
2022/05/18 10:08:16;;;;;;;6.90;3.20;;;23.70;66.50;;;;;;5019869;28;20461;-72
2022/05/18 10:10:45;;;;;;;7.07;2.63;;;23.70;66.20;;;;;;5018567;28;20456;-74
2022/05/18 10:13:16;;;;;;;6.77;2.90;;;23.80;65.80;;;;;;5017018;28;20451;-71
2022/05/18 10:16:07;;;;;;;5.23;2.70;;;23.80;65.40;;;;;;5014871;28;20510;-73
2022/05/18 10:18:41;;;;;;;7.30;3.30;;;23.90;65.50;;;;;;5017102;28;20487;-73
2022/05/18 10:21:23;;;;;;;5.50;3.30;;;24.00;65.50;;;;;;5017687;28;20507;-73
2022/05/18 10:24:05;;;;;;;7.37;3.30;;;24.00;65.50;;;;;;5037565;28;20515;-72
2022/05/18 10:26:38;;;;;;;6.00;3.70;;;24.00;65.30;;;;;;5020229;28;20492;-70
2022/05/18 10:29:20;;;;;;;6.40;3.33;;;24.00;65.10;;;;;;5012248;28;20861;-71
2022/05/18 10:32:04;;;;;;;7.10;4.03;;;24.00;65.00;;;;;;5013504;28;20468;-71
2022/05/18 10:34:40;;;;;;;7.90;3.67;;;24.10;64.60;;;;;;5017098;28;20461;-70
2022/05/18 10:37:10;;;;;;;6.00;3.70;;;24.20;64.90;;;;;;5015164;28;20853;-72
2022/05/18 10:39:41;;;;;;;5.20;2.70;;;24.20;64.90;;;;;;5016353;28;20546;-71
2022/05/18 10:42:15;;;;;;;6.67;3.20;;;24.30;64.60;;;;;;5015955;28;20560;-73
2022/05/18 10:44:45;;;;;;;5.43;2.70;;;24.30;64.30;;;;;;5014600;28;20468;-72
2022/05/18 10:47:29;;;;;;;7.53;3.10;;;24.40;63.90;;;;;;5009988;28;20508;-71
2022/05/18 10:50:24;;;;;;;7.90;2.80;;;24.40;63.50;;;;;;5016463;28;20469;-71
2022/05/18 10:52:55;;;;;;;5.67;3.10;;;24.40;63.30;;;;;;5015743;28;20555;-72
2022/05/18 10:55:24;;;;;;;7.77;3.40;;;24.50;63.40;;;;;;5017247;28;20481;-71
2022/05/18 10:58:00;;;;;;;6.63;2.70;;;24.50;63.30;;;;;;5019743;28;20461;-73
2022/05/18 11:00:44;;;;;;;6.50;2.63;;;24.50;63.10;;;;;;5013562;28;21012;-73
2022/05/18 11:03:27;;;;;;;6.70;2.97;;;24.60;62.90;;;;;;5011803;28;20466;-73
2022/05/18 11:06:02;;;;;;;8.10;3.50;;;24.60;62.70;;;;;;5018673;28;20475;-72
2022/05/18 11:08:31;;;;;;;6.63;3.37;;;24.70;62.80;;;;;;5013949;28;20459;-72
2022/05/18 11:11:08;;;;;;;5.80;3.33;;;24.70;62.90;;;;;;5018466;28;20462;-71
2022/05/18 11:13:46;;;;;;;5.83;3.10;;;24.70;62.70;;;;;;5020096;28;20463;-71
2022/05/18 11:16:31;;;;;;;8.43;3.77;;;24.70;62.50;;;;;;5017134;28;20568;-71
2022/05/18 11:19:08;;;;;;;6.90;2.83;;;24.70;62.50;;;;;;5013956;28;20467;-71
2022/05/18 11:21:50;;;;;;;4.90;2.63;;;24.70;62.50;;;;;;5016737;28;20898;-73
2022/05/18 11:24:29;;;;;;;7.50;2.63;;;24.70;62.70;;;;;;5012658;28;20457;-72
2022/05/18 11:27:05;;;;;;;5.53;2.90;;;24.80;62.00;;;;;;5018168;28;20453;-72
2022/05/18 11:29:45;;;;;;;6.63;2.70;;;24.90;61.80;;;;;;5016846;28;20465;-72
2022/05/18 11:32:26;;;;;;;9.97;2.80;;;24.90;61.60;;;;;;5016567;28;20822;-72
2022/05/18 11:35:15;;;;;;;6.03;2.60;;;24.90;61.30;;;;;;5013066;28;20480;-71
2022/05/18 11:38:03;;;;;;;5.70;2.63;;;24.90;61.30;;;;;;5015549;28;20452;-72
2022/05/18 11:40:43;;;;;;;7.93;3.30;;;24.90;61.40;;;;;;5019517;28;20514;-72
2022/05/18 11:43:33;;;;;;;5.27;2.77;;;24.90;61.30;;;;;;5023921;28;20878;-72
2022/05/18 11:46:15;;;;;;;5.67;2.87;;;25.00;61.50;;;;;;5017154;28;20528;-70
2022/05/18 11:48:51;;;;;;;6.20;2.97;;;25.00;61.30;;;;;;5021323;28;20459;-72
2022/05/18 11:51:30;;;;;;;6.87;2.80;;;25.10;61.00;;;;;;5019704;28;20448;-72
2022/05/18 11:54:06;;;;;;;6.90;2.93;;;25.10;60.70;;;;;;5022998;28;20474;-72
2022/05/18 11:56:44;;;;;;;6.23;2.70;;;25.10;61.00;;;;;;5018163;28;20488;-72
2022/05/18 11:59:45;;;;;;;8.03;2.67;;;25.20;60.80;;;;;;5019619;28;20472;-72
2022/05/18 12:02:34;;;;;;;6.33;2.67;;;25.20;60.50;;;;;;5018052;28;20483;-72
2022/05/18 12:05:26;;;;;;;5.50;2.40;;;25.20;60.40;;;;;;5016445;28;20530;-72
2022/05/18 12:08:25;;;;;;;6.90;2.87;;;25.20;60.10;;;;;;5016749;28;20473;-71
2022/05/18 12:11:01;;;;;;;5.00;2.60;;;25.30;60.30;;;;;;5018551;28;20467;-71
2022/05/18 12:13:35;;;;;;;7.37;2.60;;;25.30;60.20;;;;;;5021555;28;20830;-72
2022/05/18 12:16:08;;;;;;;7.60;2.43;;;25.30;60.10;;;;;;5013016;28;20469;-72
2022/05/18 12:18:41;;;;;;;5.33;2.37;;;25.30;60.20;;;;;;5013156;28;20491;-72
2022/05/18 12:21:15;;;;;;;7.23;2.93;;;25.40;60.10;;;;;;5014057;28;20478;-71
2022/05/18 12:23:48;;;;;;;5.90;2.50;;;25.40;60.10;;;;;;5012443;28;20487;-71
2022/05/18 12:26:17;;;;;;;6.40;2.50;;;25.40;59.80;;;;;;5018861;28;20589;-72
2022/05/18 12:28:46;;;;;;;6.83;2.67;;;25.50;59.80;;;;;;5020033;28;20473;-71
2022/05/18 12:31:14;;;;;;;5.57;2.67;;;25.50;59.60;;;;;;5018256;28;20522;-72
2022/05/18 12:34:00;;;;;;;8.13;2.90;;;25.60;59.40;;;;;;5016297;28;20846;-72
2022/05/18 12:36:35;;;;;;;5.90;2.63;;;25.60;59.20;;;;;;5016005;28;20497;-72
2022/05/18 12:39:12;;;;;;;5.53;2.30;;;25.50;59.40;;;;;;5019064;28;20979;-72
2022/05/18 12:41:44;;;;;;;6.63;2.90;;;25.60;59.30;;;;;;5020048;28;20512;-72
2022/05/18 12:44:22;;;;;;;10.23;2.37;;;25.60;59.20;;;;;;5016715;28;20467;-71
2022/05/18 12:46:54;;;;;;;6.57;2.27;;;25.60;59.00;;;;;;5015924;28;20468;-71
2022/05/18 12:49:30;;;;;;;5.83;2.80;;;25.60;59.00;;;;;;5013384;28;20456;-71
2022/05/18 12:52:05;;;;;;;5.73;2.60;;;25.60;59.40;;;;;;5012218;28;20456;-72
2022/05/18 12:54:43;;;;;;;6.73;2.40;;;25.70;59.10;;;;;;5016470;28;20525;-70
2022/05/18 12:57:17;;;;;;;5.67;2.20;;;25.80;58.70;;;;;;5018015;28;20451;-73
2022/05/18 12:59:56;;;;;;;5.53;2.63;;;25.80;58.70;;;;;;5020096;28;20457;-71
2022/05/18 13:02:38;;;;;;;6.63;2.60;;;25.80;58.50;;;;;;5022358;28;20479;-72
2022/05/18 13:05:31;;;;;;;4.40;2.30;;;25.80;58.40;;;;;;5019678;28;20912;-71
2022/05/18 13:08:09;;;;;;;6.40;2.90;;;25.80;58.50;;;;;;5015998;28;20451;-71
2022/05/18 13:10:38;;;;;;;5.70;2.73;;;25.90;57.90;;;;;;5021042;28;20524;-72
2022/05/18 13:13:20;;;;;;;5.07;2.50;;;25.90;58.00;;;;;;5021287;28;20472;-71
2022/05/18 13:15:57;;;;;;;8.77;3.70;;;26.00;57.90;;;;;;5019137;28;20908;-71
2022/05/18 13:18:33;;;;;;;6.23;2.23;;;26.00;57.40;;;;;;5017712;28;20489;-72
2022/05/18 13:21:17;;;;;;;5.37;2.60;;;26.00;57.70;;;;;;5014436;28;20456;-72
2022/05/18 13:23:54;;;;;;;5.60;2.00;;;26.00;57.60;;;;;;5018525;28;20455;-72
2022/05/18 13:26:33;;;;;;;5.63;2.40;;;26.10;57.60;;;;;;5014121;28;20530;-71